Time;durP1;ratioP1;P1;durP2;ratioP2;P2;SDS_P1;SDS_P2;PMS_P1;PMS_P2;Temp;Humidity;BMP_temperature;BMP_pressure;BME280_temperature;BME280_humidity;BME280_pressure;Samples;Min_cycle;Max_cycle;Signal;HPM_P1;HPM_P2
2021/01/16 00:00:33;;;;;;;17.45;8.82;;;0.10;94.40;;;;;;5075117;27;20497;-81
2021/01/16 00:02:59;;;;;;;17.20;8.25;;;0.10;94.20;;;;;;5092592;27;20058;-81
2021/01/16 00:05:26;;;;;;;14.32;6.65;;;0.20;94.70;;;;;;5087644;27;20435;-82
2021/01/16 00:08:05;;;;;;;14.85;8.27;;;0.20;94.30;;;;;;5090864;27;20034;-81
2021/01/16 00:10:31;;;;;;;11.90;6.65;;;0.10;94.40;;;;;;5087298;27;20023;-82
2021/01/16 00:12:57;;;;;;;15.32;8.25;;;0.10;94.50;;;;;;5093642;27;20385;-81
2021/01/16 00:15:22;;;;;;;13.50;7.00;;;0.20;94.70;;;;;;5087805;27;20118;-82
2021/01/16 00:18:18;;;;;;;16.65;8.57;;;0.20;94.60;;;;;;5092969;27;20699;-82
2021/01/16 00:20:48;;;;;;;14.23;7.28;;;0.10;94.30;;;;;;5066782;27;20039;-81
2021/01/16 00:23:14;;;;;;;15.80;7.53;;;0.10;94.90;;;;;;5088735;27;20020;-81
2021/01/16 00:25:40;;;;;;;16.05;8.13;;;0.20;94.80;;;;;;5076317;27;20026;-83
2021/01/16 00:28:06;;;;;;;14.60;6.60;;;0.10;94.70;;;;;;5093142;27;20034;-82
2021/01/16 00:30:33;;;;;;;15.68;8.38;;;0.10;95.10;;;;;;5093466;27;20039;-82
2021/01/16 00:32:59;;;;;;;21.63;8.75;;;0.10;94.70;;;;;;5089260;27;20418;-82
2021/01/16 00:35:26;;;;;;;11.27;6.03;;;0.10;94.80;;;;;;5082503;27;20038;-80
2021/01/16 00:37:51;;;;;;;14.80;6.65;;;0.20;95.00;;;;;;5090769;27;20050;-81
2021/01/16 00:40:19;;;;;;;18.73;8.23;;;0.30;94.80;;;;;;5095921;27;20043;-82
2021/01/16 00:42:54;;;;;;;14.60;7.65;;;0.30;94.70;;;;;;5107511;27;20061;-81
2021/01/16 00:45:20;;;;;;;16.58;8.07;;;0.30;94.50;;;;;;5092691;27;20023;-81
2021/01/16 00:47:46;;;;;;;16.08;8.15;;;0.30;94.10;;;;;;5093029;27;20085;-81
2021/01/16 00:50:14;;;;;;;14.77;7.82;;;0.30;94.20;;;;;;5077077;27;20023;-82
2021/01/16 00:52:40;;;;;;;17.70;8.70;;;0.30;94.40;;;;;;5089799;27;20027;-83
2021/01/16 00:55:06;;;;;;;14.00;6.32;;;0.20;94.60;;;;;;5076744;27;20448;-82
2021/01/16 00:57:32;;;;;;;13.55;6.45;;;0.20;94.80;;;;;;5091229;27;20539;-83
2021/01/16 00:59:57;;;;;;;15.57;7.13;;;0.30;95.00;;;;;;5075978;27;20023;-82
2021/01/16 01:02:23;;;;;;;17.52;8.50;;;0.30;94.70;;;;;;5077975;27;20038;-81
2021/01/16 01:04:49;;;;;;;15.15;6.65;;;0.20;94.60;;;;;;5083487;27;20046;-82
2021/01/16 01:07:14;;;;;;;14.13;7.40;;;0.20;95.00;;;;;;5080363;27;20027;-81
2021/01/16 01:09:40;;;;;;;12.65;7.43;;;0.30;94.90;;;;;;5092743;27;20027;-83
2021/01/16 01:12:06;;;;;;;14.07;6.38;;;0.30;94.80;;;;;;5093041;27;20401;-82
2021/01/16 01:14:32;;;;;;;12.40;6.10;;;0.30;94.80;;;;;;5091899;27;20035;-82
2021/01/16 01:16:58;;;;;;;15.20;6.50;;;0.30;94.70;;;;;;5074956;27;20496;-81
2021/01/16 01:19:23;;;;;;;12.38;6.10;;;0.30;94.70;;;;;;5091931;27;20031;-81
2021/01/16 01:21:49;;;;;;;15.00;8.05;;;0.30;94.80;;;;;;5092718;27;20114;-82
2021/01/16 01:24:15;;;;;;;21.92;9.65;;;0.40;94.60;;;;;;5090824;27;20080;-82
2021/01/16 01:26:40;;;;;;;21.60;8.02;;;0.30;94.40;;;;;;5108282;27;20212;-81
2021/01/16 01:29:06;;;;;;;12.95;6.72;;;0.30;94.40;;;;;;5108468;27;20328;-82
2021/01/16 01:31:32;;;;;;;13.30;6.40;;;0.40;94.50;;;;;;5089624;27;20034;-81
2021/01/16 01:33:57;;;;;;;16.23;7.07;;;0.40;94.50;;;;;;5103312;27;20026;-81
2021/01/16 01:36:23;;;;;;;15.88;7.22;;;0.30;94.70;;;;;;5074226;27;20394;-81
2021/01/16 01:38:48;;;;;;;13.30;7.00;;;0.20;94.80;;;;;;5075812;27;20047;-81
2021/01/16 01:41:14;;;;;;;19.00;9.63;;;0.30;94.70;;;;;;5074978;27;20387;-80
2021/01/16 01:43:39;;;;;;;17.90;9.32;;;0.30;94.70;;;;;;5108155;27;20526;-80
2021/01/16 01:46:05;;;;;;;17.02;8.60;;;0.30;94.50;;;;;;5091268;27;20471;-80
2021/01/16 01:48:32;;;;;;;16.50;8.07;;;0.30;94.60;;;;;;5074949;27;20051;-80
2021/01/16 01:50:59;;;;;;;17.23;9.27;;;0.30;94.60;;;;;;5091687;27;20042;-80
2021/01/16 01:53:25;;;;;;;17.77;8.93;;;0.30;94.50;;;;;;5089471;27;20023;-81
2021/01/16 01:55:54;;;;;;;15.25;6.85;;;0.30;94.50;;;;;;5091296;27;20042;-81
2021/01/16 01:58:23;;;;;;;12.88;6.63;;;0.30;94.50;;;;;;5089578;27;20031;-80
2021/01/16 02:00:49;;;;;;;13.90;7.13;;;0.30;94.30;;;;;;5075306;28;20063;-79
2021/01/16 02:03:15;;;;;;;19.33;9.23;;;0.30;94.60;;;;;;5089397;27;20034;-79
2021/01/16 02:05:41;;;;;;;15.30;8.10;;;0.20;94.70;;;;;;5090404;28;20371;-80
2021/01/16 02:08:06;;;;;;;15.80;8.15;;;0.30;94.80;;;;;;5090962;27;20020;-79
2021/01/16 02:10:33;;;;;;;14.15;8.07;;;0.40;94.40;;;;;;5087603;27;20266;-81
2021/01/16 02:12:59;;;;;;;17.60;7.50;;;0.40;94.70;;;;;;5109372;28;20076;-80
2021/01/16 02:15:30;;;;;;;16.50;7.93;;;0.40;94.00;;;;;;5075611;28;20028;-79
2021/01/16 02:18:05;;;;;;;16.77;7.82;;;0.40;94.50;;;;;;5091839;28;20031;-79
2021/01/16 02:20:35;;;;;;;12.85;7.22;;;0.40;94.20;;;;;;5092038;28;20066;-79
2021/01/16 02:23:12;;;;;;;15.82;7.82;;;0.40;94.40;;;;;;5091720;28;20487;-81
2021/01/16 02:25:37;;;;;;;21.52;8.57;;;0.30;94.40;;;;;;5107713;28;20406;-79
2021/01/16 02:28:05;;;;;;;14.43;7.55;;;0.30;94.50;;;;;;5106089;28;20034;-80
2021/01/16 02:30:33;;;;;;;20.70;8.55;;;0.30;94.70;;;;;;5074465;28;20122;-79
2021/01/16 02:32:59;;;;;;;13.13;6.55;;;0.30;94.60;;;;;;5090181;28;20027;-80
2021/01/16 02:35:24;;;;;;;16.30;7.75;;;0.20;94.70;;;;;;5080387;28;20023;-81
2021/01/16 02:38:27;;;;;;;15.23;7.53;;;0.30;94.60;;;;;;5075284;28;20027;-79
2021/01/16 02:40:59;;;;;;;18.38;8.40;;;0.40;94.50;;;;;;5103139;28;20040;-79
2021/01/16 02:43:36;;;;;;;15.30;7.80;;;0.40;94.30;;;;;;5074329;28;20108;-80
2021/01/16 02:46:02;;;;;;;;;;;0.40;94.80;;;;;;5091053;28;20028;-79
2021/01/16 02:48:39;;;;;;;16.15;7.82;;;0.30;94.30;;;;;;5106911;28;19911;-80
2021/01/16 02:51:05;;;;;;;14.63;7.25;;;0.30;94.40;;;;;;5074806;28;20035;-80
2021/01/16 02:53:33;;;;;;;15.25;7.75;;;0.30;94.40;;;;;;5089489;28;20023;-81
2021/01/16 02:55:59;;;;;;;12.85;6.60;;;0.40;94.30;;;;;;5091075;28;20105;-79
2021/01/16 02:58:25;;;;;;;13.30;7.65;;;0.30;94.20;;;;;;5089120;28;20030;-79
2021/01/16 03:00:50;;;;;;;17.73;8.00;;;0.30;94.40;;;;;;5090668;28;20504;-80
2021/01/16 03:03:16;;;;;;;20.48;9.35;;;0.40;94.40;;;;;;5086809;28;20023;-80
2021/01/16 03:05:41;;;;;;;15.93;8.45;;;0.30;94.10;;;;;;5075786;28;20054;-83
2021/01/16 03:08:08;;;;;;;13.70;6.13;;;0.30;94.20;;;;;;5103690;28;20019;-82
2021/01/16 03:10:33;;;;;;;19.13;9.07;;;0.40;94.40;;;;;;5091052;27;20039;-82
2021/01/16 03:12:59;;;;;;;15.95;7.57;;;0.40;94.20;;;;;;5097250;28;20436;-80
2021/01/16 03:15:24;;;;;;;16.33;7.90;;;0.40;94.10;;;;;;5090451;27;20015;-81
2021/01/16 03:17:51;;;;;;;18.27;9.63;;;0.40;94.00;;;;;;5095823;27;20027;-82
2021/01/16 03:20:27;;;;;;;19.00;9.00;;;0.30;94.40;;;;;;5093382;27;20027;-81
2021/01/16 03:23:00;;;;;;;14.90;7.63;;;0.30;94.20;;;;;;5076411;27;20039;-82
2021/01/16 03:25:27;;;;;;;15.95;8.43;;;0.30;94.30;;;;;;5095581;27;20125;-82
2021/01/16 03:27:53;;;;;;;16.02;8.15;;;0.40;93.70;;;;;;5083842;27;20034;-83
2021/01/16 03:30:19;;;;;;;14.02;7.07;;;0.40;93.40;;;;;;5111463;27;20558;-82
2021/01/16 03:32:45;;;;;;;15.32;7.45;;;0.40;93.90;;;;;;5094019;27;20031;-82
2021/01/16 03:35:11;;;;;;;18.27;8.00;;;0.30;94.10;;;;;;5106368;27;20043;-82
2021/01/16 03:37:37;;;;;;;13.02;6.50;;;0.30;94.10;;;;;;5086456;27;20046;-81
2021/01/16 03:40:07;;;;;;;15.63;7.88;;;0.30;94.00;;;;;;5100865;27;20255;-83
2021/01/16 03:42:33;;;;;;;16.10;7.80;;;0.30;94.20;;;;;;5092652;27;20035;-82
2021/01/16 03:44:59;;;;;;;12.68;6.68;;;0.30;94.10;;;;;;5097013;27;20024;-84
2021/01/16 03:47:24;;;;;;;16.17;7.90;;;0.30;94.20;;;;;;5095835;27;20042;-83
2021/01/16 03:49:50;;;;;;;17.83;8.88;;;0.40;94.10;;;;;;5086028;28;20020;-83
2021/01/16 03:52:36;;;;;;;19.27;9.50;;;0.40;93.90;;;;;;5079686;27;20081;-83
2021/01/16 03:55:02;;;;;;;;;;;0.30;94.10;;;;;;5097307;27;20032;-83
2021/01/16 03:57:28;;;;;;;16.60;8.40;;;0.20;94.30;;;;;;5095715;27;19996;-83
2021/01/16 03:59:53;;;;;;;15.85;6.97;;;0.20;94.30;;;;;;5102020;27;20035;-83
2021/01/16 04:02:19;;;;;;;13.30;6.88;;;0.20;94.50;;;;;;5105094;27;20057;-82
2021/01/16 04:04:45;;;;;;;14.27;7.60;;;0.30;94.30;;;;;;5096545;27;20475;-83
2021/01/16 04:07:10;;;;;;;16.27;8.45;;;0.30;94.10;;;;;;5077601;27;20035;-83
2021/01/16 04:09:36;;;;;;;14.65;6.97;;;0.20;94.30;;;;;;5097222;27;20490;-83
2021/01/16 04:12:02;;;;;;;14.48;6.88;;;0.20;94.30;;;;;;5094725;27;20126;-81
2021/01/16 04:14:27;;;;;;;17.58;8.40;;;0.20;94.20;;;;;;5094835;27;20111;-83
2021/01/16 04:16:53;;;;;;;14.75;6.97;;;0.20;94.50;;;;;;5095536;27;20030;-83
2021/01/16 04:19:18;;;;;;;14.98;6.88;;;0.20;94.60;;;;;;5095759;27;20043;-83
2021/01/16 04:21:45;;;;;;;13.20;7.00;;;0.20;94.60;;;;;;5092131;27;20034;-82
2021/01/16 04:24:10;;;;;;;17.23;8.35;;;0.20;94.50;;;;;;5096833;27;20157;-83
2021/01/16 04:26:36;;;;;;;17.63;6.47;;;0.30;94.50;;;;;;5100054;27;20122;-83
2021/01/16 04:29:01;;;;;;;13.45;6.60;;;0.20;94.70;;;;;;5093885;27;20148;-84
2021/01/16 04:31:28;;;;;;;15.65;7.10;;;0.20;94.40;;;;;;5097860;27;20027;-84
2021/01/16 04:33:53;;;;;;;14.27;7.55;;;0.20;94.40;;;;;;5091021;27;20059;-82
2021/01/16 04:36:19;;;;;;;14.20;6.63;;;0.20;94.00;;;;;;5092758;27;20038;-83
2021/01/16 04:38:44;;;;;;;16.83;7.22;;;0.20;94.30;;;;;;5099912;27;20024;-83
2021/01/16 04:41:10;;;;;;;18.50;8.32;;;0.30;94.10;;;;;;5089017;28;20038;-83
2021/01/16 04:43:36;;;;;;;15.23;8.25;;;0.20;94.10;;;;;;5079989;27;20466;-82
2021/01/16 04:46:06;;;;;;;16.85;7.53;;;0.10;94.40;;;;;;5102752;27;20546;-83
2021/01/16 04:48:36;;;;;;;16.83;7.55;;;0.10;94.50;;;;;;5105935;27;20119;-85
2021/01/16 04:51:04;;;;;;;15.43;7.60;;;0.20;94.40;;;;;;5102540;27;20549;-85
2021/01/16 04:53:39;;;;;;;11.68;6.45;;;0.20;94.30;;;;;;5088705;27;20545;-85
2021/01/16 04:56:08;;;;;;;15.73;7.60;;;0.30;94.20;;;;;;5097187;27;20171;-84
2021/01/16 04:58:34;;;;;;;13.82;6.65;;;0.30;94.30;;;;;;5094738;27;20057;-84
2021/01/16 05:01:04;;;;;;;16.25;7.50;;;0.30;94.10;;;;;;5088696;27;20122;-83
2021/01/16 05:03:37;;;;;;;17.40;8.57;;;0.20;94.20;;;;;;5095632;27;20015;-84
2021/01/16 05:06:08;;;;;;;12.95;6.63;;;0.20;94.20;;;;;;5105723;27;20104;-83
2021/01/16 05:08:36;;;;;;;12.90;6.25;;;0.20;94.20;;;;;;5088749;27;20057;-82
2021/01/16 05:11:03;;;;;;;14.13;7.63;;;0.20;94.40;;;;;;5092137;27;20050;-82
2021/01/16 05:13:45;;;;;;;16.00;7.60;;;0.20;94.40;;;;;;5105151;27;20090;-82
2021/01/16 05:16:14;;;;;;;16.27;7.25;;;0.30;94.40;;;;;;5102133;28;20088;-83
2021/01/16 05:18:41;;;;;;;17.88;7.15;;;0.30;94.00;;;;;;5085363;27;20043;-84
2021/01/16 05:21:07;;;;;;;18.73;8.05;;;0.30;94.10;;;;;;5100237;27;20089;-84
2021/01/16 05:23:33;;;;;;;14.27;7.75;;;0.30;94.10;;;;;;5089109;27;20050;-86
2021/01/16 05:25:59;;;;;;;13.85;7.38;;;0.30;94.10;;;;;;5102671;27;20019;-82
2021/01/16 05:28:25;;;;;;;13.05;6.53;;;0.20;94.50;;;;;;5105514;27;20118;-84
2021/01/16 05:30:51;;;;;;;13.82;6.97;;;0.30;94.20;;;;;;5119786;27;20058;-85
2021/01/16 05:33:18;;;;;;;20.35;8.52;;;0.40;93.60;;;;;;5097750;27;20505;-84
2021/01/16 05:35:44;;;;;;;17.23;7.47;;;0.30;93.70;;;;;;5082134;27;20027;-83
2021/01/16 05:38:12;;;;;;;12.90;6.15;;;0.40;94.00;;;;;;5096485;27;20035;-84
2021/01/16 05:40:37;;;;;;;15.90;6.80;;;0.40;93.70;;;;;;5096629;27;20042;-84
2021/01/16 05:43:03;;;;;;;15.27;7.47;;;0.40;93.20;;;;;;5098185;27;20031;-83
2021/01/16 05:45:28;;;;;;;16.58;7.13;;;0.50;92.90;;;;;;5081519;27;20031;-83
2021/01/16 05:47:54;;;;;;;12.90;6.93;;;0.40;92.90;;;;;;5110380;27;20023;-83
2021/01/16 05:50:22;;;;;;;10.70;5.57;;;0.40;92.80;;;;;;5074822;27;20061;-83
2021/01/16 05:52:48;;;;;;;11.68;5.82;;;0.40;92.90;;;;;;5091973;27;20517;-83
2021/01/16 05:55:13;;;;;;;12.23;5.93;;;0.40;92.70;;;;;;5091622;27;20027;-83
2021/01/16 05:57:45;;;;;;;10.15;5.35;;;0.50;92.70;;;;;;5087855;27;20047;-83
2021/01/16 06:00:10;;;;;;;9.35;5.28;;;0.40;92.60;;;;;;5107902;27;20550;-85
2021/01/16 06:02:36;;;;;;;12.40;6.38;;;0.50;92.70;;;;;;5069232;27;20142;-84
2021/01/16 06:05:02;;;;;;;11.25;6.03;;;0.40;92.50;;;;;;5092028;27;20437;-85
2021/01/16 06:07:27;;;;;;;13.95;6.90;;;0.40;92.50;;;;;;5090981;27;20433;-82
2021/01/16 06:09:54;;;;;;;14.75;6.63;;;0.50;92.30;;;;;;5075256;27;20564;-83
2021/01/16 06:12:20;;;;;;;11.98;6.82;;;0.50;92.80;;;;;;5089250;27;20029;-82
2021/01/16 06:14:46;;;;;;;14.98;6.47;;;0.40;92.50;;;;;;5072419;28;20032;-83
2021/01/16 06:17:13;;;;;;;11.95;6.53;;;0.40;92.70;;;;;;5070499;28;20038;-84
2021/01/16 06:19:45;;;;;;;15.98;7.22;;;0.40;92.60;;;;;;5080803;28;20050;-83
2021/01/16 06:22:12;;;;;;;14.05;6.30;;;0.40;92.70;;;;;;5077465;28;20093;-85
2021/01/16 06:24:38;;;;;;;12.80;6.80;;;0.40;93.20;;;;;;5104371;28;20482;-84
2021/01/16 06:27:04;;;;;;;18.27;6.88;;;0.40;92.90;;;;;;5091592;28;20602;-83
2021/01/16 06:29:36;;;;;;;12.63;6.82;;;0.40;92.60;;;;;;5091517;28;20023;-84
2021/01/16 06:32:11;;;;;;;13.13;6.50;;;0.30;93.10;;;;;;5076550;28;20410;-84
2021/01/16 06:34:41;;;;;;;16.90;7.97;;;0.40;93.10;;;;;;5072561;28;20019;-84
2021/01/16 06:37:13;;;;;;;11.57;5.97;;;0.40;92.90;;;;;;5064632;28;20031;-85
2021/01/16 06:39:43;;;;;;;14.82;7.45;;;0.50;93.20;;;;;;5108413;28;20023;-84
2021/01/16 06:42:10;;;;;;;13.45;6.40;;;0.40;92.70;;;;;;5104562;28;20035;-83
2021/01/16 06:44:36;;;;;;;17.48;7.07;;;0.40;93.00;;;;;;5090128;28;20039;-83
2021/01/16 06:47:02;;;;;;;17.00;8.32;;;0.40;92.80;;;;;;5091272;28;20233;-84
2021/01/16 06:49:30;;;;;;;12.18;6.47;;;0.30;92.90;;;;;;5083396;27;20498;-84
2021/01/16 06:52:00;;;;;;;15.15;7.15;;;0.30;92.90;;;;;;5092647;27;20447;-83
2021/01/16 06:54:27;;;;;;;18.00;8.90;;;0.40;92.70;;;;;;5082765;27;20026;-84
2021/01/16 06:57:09;;;;;;;14.45;7.72;;;0.40;92.80;;;;;;5112748;27;20402;-84
2021/01/16 06:59:38;;;;;;;16.77;7.07;;;0.30;92.90;;;;;;5094697;27;20080;-85
2021/01/16 07:02:27;;;;;;;11.73;6.13;;;0.20;93.50;;;;;;5079056;27;20039;-84
2021/01/16 07:05:00;;;;;;;6.82;3.35;;;0.40;93.40;;;;;;5094303;27;20055;-84
2021/01/16 07:07:39;;;;;;;15.40;7.00;;;0.50;92.00;;;;;;5083003;27;20031;-84
2021/01/16 07:10:05;;;;;;;14.70;6.53;;;0.50;92.30;;;;;;5079975;27;20564;-82
2021/01/16 07:12:30;;;;;;;12.98;6.18;;;0.50;92.40;;;;;;5103008;27;20151;-83
2021/01/16 07:14:56;;;;;;;10.75;5.80;;;0.30;93.00;;;;;;5077286;27;20080;-84
2021/01/16 07:17:23;;;;;;;12.65;5.05;;;0.50;92.90;;;;;;5081891;27;20436;-83
2021/01/16 07:19:49;;;;;;;13.35;6.07;;;0.40;92.00;;;;;;5093123;27;20463;-83
2021/01/16 07:22:14;;;;;;;11.02;5.00;;;0.40;92.00;;;;;;5099474;27;20055;-85
2021/01/16 07:24:40;;;;;;;9.88;5.38;;;0.50;92.10;;;;;;5080545;27;20114;-84
2021/01/16 07:27:06;;;;;;;14.57;7.07;;;0.40;92.00;;;;;;5085789;27;20037;-83
2021/01/16 07:29:42;;;;;;;7.43;2.00;;;0.40;92.10;;;;;;5078324;27;20027;-84
2021/01/16 07:32:14;;;;;;;13.55;6.63;;;0.40;91.40;;;;;;5093677;27;20027;-84
2021/01/16 07:34:45;;;;;;;15.73;6.75;;;0.40;91.90;;;;;;5090696;27;20305;-83
2021/01/16 07:37:11;;;;;;;15.20;7.60;;;0.40;92.00;;;;;;5091396;27;20525;-84
2021/01/16 07:39:39;;;;;;;17.30;9.13;;;0.40;92.10;;;;;;5105826;27;20027;-84
2021/01/16 07:42:08;;;;;;;18.42;7.85;;;0.40;91.90;;;;;;5111948;27;20070;-83
2021/01/16 07:44:34;;;;;;;14.57;7.63;;;0.40;91.30;;;;;;5093540;27;20031;-84
2021/01/16 07:46:59;;;;;;;17.52;6.55;;;0.30;91.70;;;;;;5077474;27;20032;-85
2021/01/16 07:49:27;;;;;;;13.05;6.05;;;0.30;91.80;;;;;;5095052;27;20437;-84
2021/01/16 07:51:54;;;;;;;16.00;7.45;;;0.40;91.40;;;;;;5090968;27;20454;-83
2021/01/16 07:54:20;;;;;;;22.90;10.13;;;0.40;91.80;;;;;;5062225;27;20027;-84
2021/01/16 07:56:45;;;;;;;12.02;5.93;;;0.40;91.50;;;;;;5090130;28;20494;-84
2021/01/16 07:59:18;;;;;;;5.10;3.03;;;0.50;91.80;;;;;;5107707;27;20501;-85
2021/01/16 08:01:58;;;;;;;9.95;4.90;;;0.50;91.40;;;;;;5030710;27;20497;-84
2021/01/16 08:04:27;;;;;;;15.85;6.10;;;0.40;91.40;;;;;;5114765;27;20047;-85
2021/01/16 08:07:03;;;;;;;15.10;7.90;;;0.50;91.60;;;;;;5093089;27;20747;-84
2021/01/16 08:09:55;;;;;;;17.13;8.60;;;0.50;91.30;;;;;;5080364;27;20035;-84
2021/01/16 08:12:25;;;;;;;11.30;5.18;;;0.50;91.50;;;;;;5085140;27;20039;-83
2021/01/16 08:14:50;;;;;;;19.45;8.18;;;0.50;91.40;;;;;;5091320;27;20031;-83
2021/01/16 08:17:17;;;;;;;14.77;8.48;;;0.50;91.50;;;;;;5094139;27;20023;-83
2021/01/16 08:20:07;;;;;;;8.43;4.22;;;0.50;91.20;;;;;;5086281;27;20120;-83
2021/01/16 08:22:42;;;;;;;16.45;6.97;;;0.50;91.00;;;;;;5107042;27;20077;-83
2021/01/16 08:25:13;;;;;;;8.75;3.05;;;0.50;91.20;;;;;;5101385;27;20441;-83
2021/01/16 08:27:40;;;;;;;22.15;7.80;;;0.50;90.90;;;;;;5096616;27;20039;-84
2021/01/16 08:30:07;;;;;;;22.45;9.27;;;0.50;91.10;;;;;;5102898;27;20049;-84
2021/01/16 08:32:33;;;;;;;10.85;6.93;;;0.50;91.10;;;;;;5105435;27;20024;-86
2021/01/16 08:35:01;;;;;;;15.77;6.03;;;0.50;91.00;;;;;;5100735;27;20023;-83
2021/01/16 08:37:34;;;;;;;11.25;4.25;;;0.50;90.80;;;;;;5078957;27;20037;-84
2021/01/16 08:40:01;;;;;;;15.38;7.10;;;0.50;90.90;;;;;;5092662;27;20031;-84
2021/01/16 08:42:27;;;;;;;13.23;5.72;;;0.60;90.70;;;;;;5079874;27;20058;-84
2021/01/16 08:44:53;;;;;;;8.52;2.58;;;0.60;90.60;;;;;;5093931;27;20686;-84
2021/01/16 08:47:19;;;;;;;17.42;8.82;;;0.60;90.60;;;;;;5091363;27;20032;-85
2021/01/16 08:49:51;;;;;;;14.95;7.43;;;0.60;90.50;;;;;;5079395;28;20388;-83
2021/01/16 08:52:35;;;;;;;19.42;8.43;;;0.60;90.70;;;;;;5096241;27;20414;-84
2021/01/16 08:55:01;;;;;;;12.27;6.43;;;0.70;90.80;;;;;;5076294;27;20471;-84
2021/01/16 08:57:34;;;;;;;19.58;8.27;;;0.60;90.40;;;;;;5086254;28;20055;-84
2021/01/16 09:00:22;;;;;;;19.05;8.07;;;0.70;90.50;;;;;;5089609;27;20110;-84
2021/01/16 09:03:20;;;;;;;20.77;9.98;;;0.70;90.90;;;;;;5089059;27;20031;-83
2021/01/16 09:05:46;;;;;;;9.45;4.85;;;0.70;90.40;;;;;;5106531;27;20053;-82
2021/01/16 09:08:19;;;;;;;10.65;4.55;;;0.70;90.30;;;;;;5091276;27;20036;-84
2021/01/16 09:10:44;;;;;;;12.73;4.95;;;0.60;90.10;;;;;;5094009;27;20027;-84
2021/01/16 09:13:30;;;;;;;16.48;7.53;;;0.80;90.40;;;;;;5106548;27;20046;-83
2021/01/16 09:15:57;;;;;;;13.02;6.53;;;0.70;90.20;;;;;;5086850;27;20410;-82
2021/01/16 09:18:23;;;;;;;12.10;6.88;;;0.70;90.10;;;;;;5085333;27;20035;-82
2021/01/16 09:20:51;;;;;;;18.50;7.82;;;0.70;90.10;;;;;;5081665;27;20027;-85
2021/01/16 09:23:19;;;;;;;17.45;8.75;;;0.80;90.30;;;;;;5111607;27;20031;-82
2021/01/16 09:25:48;;;;;;;19.15;9.00;;;0.80;90.20;;;;;;5094748;28;20031;-83
2021/01/16 09:28:41;;;;;;;18.88;8.32;;;0.80;90.10;;;;;;5071078;28;20094;-84
2021/01/16 09:31:23;;;;;;;20.17;8.35;;;0.90;90.60;;;;;;5110782;27;20035;-82
2021/01/16 09:33:50;;;;;;;26.38;8.50;;;0.90;90.10;;;;;;5093593;27;20051;-83
2021/01/16 09:36:37;;;;;;;18.77;8.23;;;0.90;90.10;;;;;;5076095;27;20035;-83
2021/01/16 09:39:19;;;;;;;18.60;8.15;;;0.90;90.00;;;;;;5092632;27;20035;-83
2021/01/16 09:41:49;;;;;;;21.08;9.00;;;0.90;90.00;;;;;;5084699;27;20077;-84
2021/01/16 09:44:15;;;;;;;22.42;9.30;;;1.00;90.00;;;;;;5091041;28;20123;-82
2021/01/16 09:46:41;;;;;;;19.98;8.38;;;1.00;89.50;;;;;;5088120;27;20027;-82
2021/01/16 09:49:09;;;;;;;18.95;9.05;;;1.00;90.20;;;;;;5109394;27;20035;-81
2021/01/16 09:51:35;;;;;;;20.20;8.93;;;1.00;90.20;;;;;;5108179;28;20024;-82
2021/01/16 09:54:08;;;;;;;18.73;9.23;;;1.10;90.00;;;;;;5113092;27;20390;-83
2021/01/16 09:56:47;;;;;;;17.42;8.82;;;1.20;90.30;;;;;;5079003;27;20494;-82
2021/01/16 09:59:19;;;;;;;19.77;8.73;;;1.20;90.10;;;;;;5078040;27;20027;-82
2021/01/16 10:01:45;;;;;;;22.00;8.55;;;1.20;89.90;;;;;;5105852;27;20056;-81
2021/01/16 10:04:21;;;;;;;18.38;9.27;;;1.20;90.10;;;;;;5095939;27;20031;-83
2021/01/16 10:06:47;;;;;;;22.55;8.27;;;1.30;90.20;;;;;;5079221;27;20042;-83
2021/01/16 10:09:19;;;;;;;20.05;9.10;;;1.30;90.20;;;;;;5095538;28;20046;-82
2021/01/16 10:11:45;;;;;;;18.60;8.40;;;1.30;88.90;;;;;;5077900;27;20035;-81
2021/01/16 10:14:18;;;;;;;26.65;10.02;;;1.30;89.30;;;;;;5090250;28;20035;-81
2021/01/16 10:16:48;;;;;;;18.42;8.55;;;1.30;88.80;;;;;;5107068;27;20081;-82
2021/01/16 10:19:15;;;;;;;15.38;8.07;;;1.30;89.60;;;;;;5099934;28;20529;-81
2021/01/16 10:22:12;;;;;;;14.30;6.40;;;1.40;89.30;;;;;;5092093;28;20470;-81
2021/01/16 10:24:43;;;;;;;16.02;7.60;;;1.40;88.50;;;;;;5108775;27;20030;-83
2021/01/16 10:27:09;;;;;;;17.08;7.70;;;1.40;88.50;;;;;;5108394;27;20486;-82
2021/01/16 10:29:38;;;;;;;9.60;5.45;;;1.40;88.70;;;;;;5109047;27;20035;-81
2021/01/16 10:32:23;;;;;;;20.13;8.02;;;1.40;87.90;;;;;;5080532;27;20035;-82
2021/01/16 10:34:52;;;;;;;22.25;8.45;;;1.40;87.60;;;;;;5089839;27;20039;-81
2021/01/16 10:37:18;;;;;;;15.43;6.05;;;1.40;87.70;;;;;;5109210;28;20031;-82
2021/01/16 10:39:48;;;;;;;15.88;7.22;;;1.40;87.90;;;;;;5088013;27;20041;-82
2021/01/16 10:42:14;;;;;;;13.25;6.18;;;1.40;87.30;;;;;;5117744;27;20047;-81
2021/01/16 10:44:40;;;;;;;19.98;7.28;;;1.40;87.10;;;;;;5103301;27;20076;-81
2021/01/16 10:47:33;;;;;;;16.02;6.80;;;1.40;87.60;;;;;;5124605;27;20553;-82
2021/01/16 10:50:12;;;;;;;15.45;7.20;;;1.50;87.00;;;;;;5122082;27;20057;-82
2021/01/16 10:52:38;;;;;;;10.75;5.47;;;1.50;86.90;;;;;;5098744;27;20390;-81
2021/01/16 10:55:22;;;;;;;13.50;7.43;;;1.50;87.40;;;;;;5080962;27;20207;-82
2021/01/16 10:57:49;;;;;;;20.83;7.97;;;1.50;86.70;;;;;;5092369;27;20047;-82
2021/01/16 11:00:17;;;;;;;14.95;7.60;;;1.50;87.50;;;;;;5108029;27;20466;-81
2021/01/16 11:02:44;;;;;;;20.17;9.07;;;1.60;87.70;;;;;;5098203;27;20474;-81
2021/01/16 11:05:25;;;;;;;15.32;7.28;;;1.70;88.40;;;;;;5080570;27;20053;-82
2021/01/16 11:07:51;;;;;;;17.15;8.18;;;1.60;87.20;;;;;;5105666;27;20445;-81
2021/01/16 11:10:33;;;;;;;21.83;9.45;;;1.70;88.00;;;;;;5103819;28;20039;-83
2021/01/16 11:13:28;;;;;;;17.48;8.20;;;1.70;87.40;;;;;;5091494;27;20031;-82
2021/01/16 11:16:13;;;;;;;15.10;7.80;;;1.60;86.40;;;;;;5086146;27;20020;-83
2021/01/16 11:18:39;;;;;;;17.80;9.13;;;1.70;87.40;;;;;;5108456;27;20050;-82
2021/01/16 11:21:06;;;;;;;12.88;5.68;;;1.60;85.80;;;;;;5114561;27;20015;-82
2021/01/16 11:23:45;;;;;;;17.85;8.90;;;1.60;85.40;;;;;;5115471;27;20028;-82
2021/01/16 11:26:11;;;;;;;18.48;9.18;;;1.60;86.00;;;;;;5123807;27;20026;-82
2021/01/16 11:28:57;;;;;;;15.57;7.07;;;1.70;86.60;;;;;;5126303;27;20072;-82
2021/01/16 11:31:29;;;;;;;16.73;7.15;;;1.70;86.70;;;;;;5120034;27;20039;-82
2021/01/16 11:34:11;;;;;;;20.25;8.07;;;1.60;86.00;;;;;;5118696;27;20062;-82
2021/01/16 11:36:57;;;;;;;17.05;7.63;;;1.80;88.70;;;;;;5108619;27;20023;-83
2021/01/16 11:39:42;;;;;;;20.77;8.13;;;1.80;86.30;;;;;;5125242;27;20042;-83
2021/01/16 11:42:08;;;;;;;20.33;8.40;;;1.80;87.00;;;;;;5126488;27;20490;-82
2021/01/16 11:44:55;;;;;;;19.73;8.90;;;1.80;86.40;;;;;;5094054;27;20513;-82
2021/01/16 11:47:21;;;;;;;12.60;5.65;;;1.80;85.60;;;;;;5123105;27;20027;-82
2021/01/16 11:49:46;;;;;;;19.40;7.32;;;1.70;86.10;;;;;;5078675;27;20336;-82
2021/01/16 11:52:13;;;;;;;20.33;9.85;;;1.80;86.60;;;;;;5092759;27;20407;-82
2021/01/16 11:54:38;;;;;;;19.17;8.30;;;1.80;87.10;;;;;;5108351;27;20031;-82
2021/01/16 11:57:06;;;;;;;18.20;8.13;;;1.80;86.70;;;;;;5096615;27;20042;-82
2021/01/16 11:59:32;;;;;;;17.92;6.70;;;1.90;85.70;;;;;;5098810;27;20033;-82
2021/01/16 12:01:57;;;;;;;14.73;5.88;;;1.90;85.90;;;;;;5104572;27;20088;-82
2021/01/16 12:04:23;;;;;;;17.05;7.35;;;1.90;85.80;;;;;;5118170;27;20604;-81
2021/01/16 12:06:52;;;;;;;14.52;7.60;;;1.90;85.40;;;;;;5095751;27;20432;-82
2021/01/16 12:09:18;;;;;;;18.30;8.73;;;1.90;85.20;;;;;;5098576;27;20110;-83
2021/01/16 12:11:54;;;;;;;13.02;5.15;;;1.90;85.20;;;;;;5091431;27;20035;-81
2021/01/16 12:14:20;;;;;;;16.20;7.75;;;1.90;84.40;;;;;;5096513;27;20027;-82
2021/01/16 12:16:53;;;;;;;18.98;7.75;;;1.80;85.30;;;;;;5084954;27;20119;-82
2021/01/16 12:19:19;;;;;;;13.80;6.95;;;1.90;86.40;;;;;;5109737;27;20043;-82
2021/01/16 12:21:46;;;;;;;15.93;7.55;;;2.00;86.40;;;;;;5126276;27;20065;-82
2021/01/16 12:24:12;;;;;;;16.75;8.35;;;2.00;86.10;;;;;;5109674;27;20497;-83
2021/01/16 12:26:39;;;;;;;14.95;7.35;;;2.00;85.30;;;;;;5100517;27;20470;-82
2021/01/16 12:29:06;;;;;;;19.42;7.53;;;2.00;85.90;;;;;;5114165;27;20035;-82
2021/01/16 12:31:31;;;;;;;14.75;7.35;;;2.00;85.80;;;;;;5110817;27;20039;-82
2021/01/16 12:34:01;;;;;;;18.65;8.65;;;2.10;86.00;;;;;;5092213;27;20432;-82
2021/01/16 12:36:26;;;;;;;15.50;7.93;;;2.00;85.30;;;;;;5091907;27;20587;-82
2021/01/16 12:38:52;;;;;;;17.02;7.63;;;2.00;86.00;;;;;;5094300;27;20031;-82
2021/01/16 12:41:22;;;;;;;19.40;7.40;;;2.00;86.10;;;;;;5077267;27;20035;-82
2021/01/16 12:43:48;;;;;;;17.38;7.78;;;2.00;85.10;;;;;;5090311;27;20146;-82
2021/01/16 12:46:14;;;;;;;18.58;9.35;;;2.00;85.30;;;;;;5088785;28;20410;-81
2021/01/16 12:48:39;;;;;;;16.55;8.07;;;2.00;85.70;;;;;;5098019;27;20023;-83
2021/01/16 12:51:05;;;;;;;11.68;6.57;;;2.00;84.00;;;;;;5103430;27;20035;-83
2021/01/16 12:53:31;;;;;;;17.83;8.35;;;2.00;84.60;;;;;;5105395;27;20082;-83
2021/01/16 12:55:56;;;;;;;14.10;6.43;;;1.90;84.50;;;;;;5089228;27;20038;-87
2021/01/16 12:58:22;;;;;;;11.93;5.13;;;2.00;86.40;;;;;;5082781;27;20027;-84